sensor_id;sensor_type;location;lat;lon;timestamp;temperature;humidity
32698;DHT22;19087;51.062;3.754;2023-02-11T00:01:37;7.90;99.90
32698;DHT22;19087;51.062;3.754;2023-02-11T00:04:04;7.70;99.90
32698;DHT22;19087;51.062;3.754;2023-02-11T00:06:31;7.80;99.90
32698;DHT22;19087;51.062;3.754;2023-02-11T00:08:58;7.80;99.90
32698;DHT22;19087;51.062;3.754;2023-02-11T00:11:25;7.70;99.90
32698;DHT22;19087;51.062;3.754;2023-02-11T00:14:01;7.70;99.90
32698;DHT22;19087;51.062;3.754;2023-02-11T00:16:28;7.60;99.90
32698;DHT22;19087;51.062;3.754;2023-02-11T00:18:54;7.60;99.90
32698;DHT22;19087;51.062;3.754;2023-02-11T00:21:22;7.60;99.90
32698;DHT22;19087;51.062;3.754;2023-02-11T00:23:48;7.60;99.90
32698;DHT22;19087;51.062;3.754;2023-02-11T00:26:19;7.60;99.90
32698;DHT22;19087;51.062;3.754;2023-02-11T00:28:46;7.60;99.90
32698;DHT22;19087;51.062;3.754;2023-02-11T00:31:15;7.70;99.90
32698;DHT22;19087;51.062;3.754;2023-02-11T00:33:41;7.60;99.90
32698;DHT22;19087;51.062;3.754;2023-02-11T00:36:13;7.40;99.90
32698;DHT22;19087;51.062;3.754;2023-02-11T00:38:39;7.40;99.90
32698;DHT22;19087;51.062;3.754;2023-02-11T00:41:05;7.40;99.90
32698;DHT22;19087;51.062;3.754;2023-02-11T00:43:30;7.50;99.90
32698;DHT22;19087;51.062;3.754;2023-02-11T00:45:58;7.60;99.90
32698;DHT22;19087;51.062;3.754;2023-02-11T00:48:26;7.70;99.90
32698;DHT22;19087;51.062;3.754;2023-02-11T00:50:52;7.70;99.90
32698;DHT22;19087;51.062;3.754;2023-02-11T00:53:19;7.70;99.90
32698;DHT22;19087;51.062;3.754;2023-02-11T00:55:46;7.70;99.90
32698;DHT22;19087;51.062;3.754;2023-02-11T00:58:12;7.70;99.90
32698;DHT22;19087;51.062;3.754;2023-02-11T01:00:39;7.70;99.90
32698;DHT22;19087;51.062;3.754;2023-02-11T01:03:07;7.80;99.90
32698;DHT22;19087;51.062;3.754;2023-02-11T01:05:33;8.00;99.90
32698;DHT22;19087;51.062;3.754;2023-02-11T01:08:00;7.90;99.90
32698;DHT22;19087;51.062;3.754;2023-02-11T01:10:26;7.80;99.90
32698;DHT22;19087;51.062;3.754;2023-02-11T01:12:55;7.50;99.90
32698;DHT22;19087;51.062;3.754;2023-02-11T01:15:27;7.70;99.90
32698;DHT22;19087;51.062;3.754;2023-02-11T01:17:52;7.80;99.90
32698;DHT22;19087;51.062;3.754;2023-02-11T01:20:23;7.90;99.90
32698;DHT22;19087;51.062;3.754;2023-02-11T01:22:48;7.80;99.90
32698;DHT22;19087;51.062;3.754;2023-02-11T01:25:14;7.90;99.90
32698;DHT22;19087;51.062;3.754;2023-02-11T01:27:40;8.00;99.90
32698;DHT22;19087;51.062;3.754;2023-02-11T01:30:07;8.10;99.90
32698;DHT22;19087;51.062;3.754;2023-02-11T01:32:34;8.10;99.90
32698;DHT22;19087;51.062;3.754;2023-02-11T01:35:02;8.10;99.90
32698;DHT22;19087;51.062;3.754;2023-02-11T01:37:28;8.20;99.90
32698;DHT22;19087;51.062;3.754;2023-02-11T01:39:53;8.20;99.90
32698;DHT22;19087;51.062;3.754;2023-02-11T01:42:22;8.30;99.90
32698;DHT22;19087;51.062;3.754;2023-02-11T01:44:52;8.30;99.90
32698;DHT22;19087;51.062;3.754;2023-02-11T01:47:19;8.40;99.90
32698;DHT22;19087;51.062;3.754;2023-02-11T01:49:52;8.50;99.90
32698;DHT22;19087;51.062;3.754;2023-02-11T01:52:31;8.40;99.90
32698;DHT22;19087;51.062;3.754;2023-02-11T01:55:08;8.30;99.90
32698;DHT22;19087;51.062;3.754;2023-02-11T01:57:56;8.40;99.90
32698;DHT22;19087;51.062;3.754;2023-02-11T02:00:23;8.20;99.90
32698;DHT22;19087;51.062;3.754;2023-02-11T02:03:10;8.40;99.90
32698;DHT22;19087;51.062;3.754;2023-02-11T02:08:29;8.30;99.90
32698;DHT22;19087;51.062;3.754;2023-02-11T02:10:57;8.00;99.90
32698;DHT22;19087;51.062;3.754;2023-02-11T02:13:27;8.20;99.90
32698;DHT22;19087;51.062;3.754;2023-02-11T02:15:58;8.10;99.90
32698;DHT22;19087;51.062;3.754;2023-02-11T02:21:21;8.10;99.90
32698;DHT22;19087;51.062;3.754;2023-02-11T02:38:07;8.40;99.90
32698;DHT22;19087;51.062;3.754;2023-02-11T02:40:47;8.40;99.90
32698;DHT22;19087;51.062;3.754;2023-02-11T02:43:14;8.40;99.90
32698;DHT22;19087;51.062;3.754;2023-02-11T02:45:41;8.30;99.90
32698;DHT22;19087;51.062;3.754;2023-02-11T02:48:31;8.30;99.90
32698;DHT22;19087;51.062;3.754;2023-02-11T03:02:51;8.40;99.90
32698;DHT22;19087;51.062;3.754;2023-02-11T03:08:38;8.40;99.90
32698;DHT22;19087;51.062;3.754;2023-02-11T03:11:08;8.50;99.90
32698;DHT22;19087;51.062;3.754;2023-02-11T03:13:35;8.60;99.90
32698;DHT22;19087;51.062;3.754;2023-02-11T03:16:24;8.60;99.90
32698;DHT22;19087;51.062;3.754;2023-02-11T03:19:01;8.50;99.90
32698;DHT22;19087;51.062;3.754;2023-02-11T03:21:30;8.60;99.90
32698;DHT22;19087;51.062;3.754;2023-02-11T03:24:03;8.40;99.90
32698;DHT22;19087;51.062;3.754;2023-02-11T03:26:38;8.40;99.90
32698;DHT22;19087;51.062;3.754;2023-02-11T03:29:16;8.50;99.90
32698;DHT22;19087;51.062;3.754;2023-02-11T03:31:58;8.40;99.90
32698;DHT22;19087;51.062;3.754;2023-02-11T03:34:41;8.40;99.90
32698;DHT22;19087;51.062;3.754;2023-02-11T03:37:20;8.60;99.90
32698;DHT22;19087;51.062;3.754;2023-02-11T03:39:53;8.70;99.90
32698;DHT22;19087;51.062;3.754;2023-02-11T03:42:22;8.70;99.90
32698;DHT22;19087;51.062;3.754;2023-02-11T03:44:52;8.60;99.90
32698;DHT22;19087;51.062;3.754;2023-02-11T03:47:24;8.60;99.90
32698;DHT22;19087;51.062;3.754;2023-02-11T03:49:52;8.80;99.90
32698;DHT22;19087;51.062;3.754;2023-02-11T03:52:21;9.00;99.90
32698;DHT22;19087;51.062;3.754;2023-02-11T03:54:52;8.90;99.90
32698;DHT22;19087;51.062;3.754;2023-02-11T03:57:18;8.90;99.90
32698;DHT22;19087;51.062;3.754;2023-02-11T03:59:57;8.60;99.90
32698;DHT22;19087;51.062;3.754;2023-02-11T04:02:27;8.50;99.90
32698;DHT22;19087;51.062;3.754;2023-02-11T04:04:54;8.60;99.90
32698;DHT22;19087;51.062;3.754;2023-02-11T04:07:20;8.70;99.90
32698;DHT22;19087;51.062;3.754;2023-02-11T04:09:46;8.80;99.90
32698;DHT22;19087;51.062;3.754;2023-02-11T04:12:13;8.80;99.90
32698;DHT22;19087;51.062;3.754;2023-02-11T04:14:38;8.50;99.90
32698;DHT22;19087;51.062;3.754;2023-02-11T04:17:04;8.40;99.90
32698;DHT22;19087;51.062;3.754;2023-02-11T04:19:30;8.30;99.90
32698;DHT22;19087;51.062;3.754;2023-02-11T04:21:56;8.20;99.90
32698;DHT22;19087;51.062;3.754;2023-02-11T04:24:21;8.30;99.90
32698;DHT22;19087;51.062;3.754;2023-02-11T04:26:47;8.10;99.90
32698;DHT22;19087;51.062;3.754;2023-02-11T04:29:14;8.20;99.90
32698;DHT22;19087;51.062;3.754;2023-02-11T04:31:40;8.40;99.90
32698;DHT22;19087;51.062;3.754;2023-02-11T04:34:08;8.20;99.90
32698;DHT22;19087;51.062;3.754;2023-02-11T04:36:34;8.10;99.90
32698;DHT22;19087;51.062;3.754;2023-02-11T04:39:00;8.30;99.90
32698;DHT22;19087;51.062;3.754;2023-02-11T04:41:27;8.50;99.90
32698;DHT22;19087;51.062;3.754;2023-02-11T04:43:53;8.60;99.90
32698;DHT22;19087;51.062;3.754;2023-02-11T04:46:18;8.60;99.90
32698;DHT22;19087;51.062;3.754;2023-02-11T04:48:45;8.60;99.90
32698;DHT22;19087;51.062;3.754;2023-02-11T04:51:12;8.30;99.90
32698;DHT22;19087;51.062;3.754;2023-02-11T04:53:38;8.20;99.90
32698;DHT22;19087;51.062;3.754;2023-02-11T04:56:04;8.30;99.90
32698;DHT22;19087;51.062;3.754;2023-02-11T04:58:30;8.30;99.90
32698;DHT22;19087;51.062;3.754;2023-02-11T05:01:00;8.30;99.90
32698;DHT22;19087;51.062;3.754;2023-02-11T05:03:31;8.30;99.90
32698;DHT22;19087;51.062;3.754;2023-02-11T05:05:56;7.90;99.90
32698;DHT22;19087;51.062;3.754;2023-02-11T05:08:23;7.80;99.90
32698;DHT22;19087;51.062;3.754;2023-02-11T05:10:48;7.90;99.90
32698;DHT22;19087;51.062;3.754;2023-02-11T05:13:14;8.20;99.90
32698;DHT22;19087;51.062;3.754;2023-02-11T05:15:42;7.90;99.90
32698;DHT22;19087;51.062;3.754;2023-02-11T05:18:09;7.80;99.90
32698;DHT22;19087;51.062;3.754;2023-02-11T05:20:37;8.00;99.90
32698;DHT22;19087;51.062;3.754;2023-02-11T05:23:03;8.00;99.90
32698;DHT22;19087;51.062;3.754;2023-02-11T05:25:29;8.00;99.90
32698;DHT22;19087;51.062;3.754;2023-02-11T05:27:54;8.20;99.90
32698;DHT22;19087;51.062;3.754;2023-02-11T05:30:20;8.40;99.90
32698;DHT22;19087;51.062;3.754;2023-02-11T05:32:47;8.60;99.90
32698;DHT22;19087;51.062;3.754;2023-02-11T05:35:12;8.50;99.90
32698;DHT22;19087;51.062;3.754;2023-02-11T05:37:38;8.50;99.90
32698;DHT22;19087;51.062;3.754;2023-02-11T05:40:04;8.50;99.90
32698;DHT22;19087;51.062;3.754;2023-02-11T05:42:30;8.50;99.90
32698;DHT22;19087;51.062;3.754;2023-02-11T05:44:56;8.50;99.90
32698;DHT22;19087;51.062;3.754;2023-02-11T05:47:22;8.50;99.90
32698;DHT22;19087;51.062;3.754;2023-02-11T05:49:47;8.50;99.90
32698;DHT22;19087;51.062;3.754;2023-02-11T05:52:13;8.60;99.90
32698;DHT22;19087;51.062;3.754;2023-02-11T05:54:39;8.60;99.90
32698;DHT22;19087;51.062;3.754;2023-02-11T05:57:04;8.60;99.90
32698;DHT22;19087;51.062;3.754;2023-02-11T05:59:30;8.70;99.90
32698;DHT22;19087;51.062;3.754;2023-02-11T06:01:56;8.60;99.90
32698;DHT22;19087;51.062;3.754;2023-02-11T06:04:21;8.50;99.90
32698;DHT22;19087;51.062;3.754;2023-02-11T06:06:47;8.50;99.90
32698;DHT22;19087;51.062;3.754;2023-02-11T06:09:13;8.50;99.90
32698;DHT22;19087;51.062;3.754;2023-02-11T06:11:40;8.40;99.90
32698;DHT22;19087;51.062;3.754;2023-02-11T06:14:08;8.40;99.90
32698;DHT22;19087;51.062;3.754;2023-02-11T06:16:35;8.30;99.90
32698;DHT22;19087;51.062;3.754;2023-02-11T06:19:01;8.30;99.90
32698;DHT22;19087;51.062;3.754;2023-02-11T06:21:27;8.50;99.90
32698;DHT22;19087;51.062;3.754;2023-02-11T06:23:53;8.40;99.90
32698;DHT22;19087;51.062;3.754;2023-02-11T06:26:21;8.40;99.90
32698;DHT22;19087;51.062;3.754;2023-02-11T06:28:47;8.20;99.90
32698;DHT22;19087;51.062;3.754;2023-02-11T06:31:13;8.00;99.90
32698;DHT22;19087;51.062;3.754;2023-02-11T06:33:39;8.00;99.90
32698;DHT22;19087;51.062;3.754;2023-02-11T06:36:14;8.10;99.90
32698;DHT22;19087;51.062;3.754;2023-02-11T06:38:41;8.00;99.90
32698;DHT22;19087;51.062;3.754;2023-02-11T06:41:11;8.00;99.90
32698;DHT22;19087;51.062;3.754;2023-02-11T06:43:38;7.90;99.90
32698;DHT22;19087;51.062;3.754;2023-02-11T06:46:04;8.00;99.90
32698;DHT22;19087;51.062;3.754;2023-02-11T06:48:31;7.90;99.90
32698;DHT22;19087;51.062;3.754;2023-02-11T06:51:03;7.90;99.90
32698;DHT22;19087;51.062;3.754;2023-02-11T06:53:33;8.00;99.90
32698;DHT22;19087;51.062;3.754;2023-02-11T06:56:04;7.80;99.90
32698;DHT22;19087;51.062;3.754;2023-02-11T06:58:30;7.70;99.90
32698;DHT22;19087;51.062;3.754;2023-02-11T07:00:56;7.50;99.90
32698;DHT22;19087;51.062;3.754;2023-02-11T07:03:24;7.40;99.90
32698;DHT22;19087;51.062;3.754;2023-02-11T07:05:51;7.50;99.90
32698;DHT22;19087;51.062;3.754;2023-02-11T07:08:16;7.40;99.90
32698;DHT22;19087;51.062;3.754;2023-02-11T07:10:43;7.30;99.90
32698;DHT22;19087;51.062;3.754;2023-02-11T07:13:18;7.40;99.90
32698;DHT22;19087;51.062;3.754;2023-02-11T07:15:45;7.40;99.90
32698;DHT22;19087;51.062;3.754;2023-02-11T07:18:11;7.50;99.90
32698;DHT22;19087;51.062;3.754;2023-02-11T07:20:40;7.60;99.90
32698;DHT22;19087;51.062;3.754;2023-02-11T07:23:05;7.80;99.90
32698;DHT22;19087;51.062;3.754;2023-02-11T07:25:31;7.90;99.90
32698;DHT22;19087;51.062;3.754;2023-02-11T07:27:57;8.20;99.90
32698;DHT22;19087;51.062;3.754;2023-02-11T07:30:23;7.90;99.90
32698;DHT22;19087;51.062;3.754;2023-02-11T07:32:48;8.00;99.90
32698;DHT22;19087;51.062;3.754;2023-02-11T07:35:23;8.00;99.90
32698;DHT22;19087;51.062;3.754;2023-02-11T07:37:49;8.10;99.90
32698;DHT22;19087;51.062;3.754;2023-02-11T07:40:14;8.30;99.90
32698;DHT22;19087;51.062;3.754;2023-02-11T07:42:48;8.50;99.90
32698;DHT22;19087;51.062;3.754;2023-02-11T07:45:14;8.50;99.90
32698;DHT22;19087;51.062;3.754;2023-02-11T07:47:40;8.70;99.90
32698;DHT22;19087;51.062;3.754;2023-02-11T07:50:08;8.80;99.90
32698;DHT22;19087;51.062;3.754;2023-02-11T07:52:41;8.80;99.90
32698;DHT22;19087;51.062;3.754;2023-02-11T07:55:09;8.70;99.90
32698;DHT22;19087;51.062;3.754;2023-02-11T07:57:36;8.70;99.90
32698;DHT22;19087;51.062;3.754;2023-02-11T08:00:03;8.80;99.90
32698;DHT22;19087;51.062;3.754;2023-02-11T08:02:30;8.80;99.90
32698;DHT22;19087;51.062;3.754;2023-02-11T08:04:56;8.80;99.90
32698;DHT22;19087;51.062;3.754;2023-02-11T08:07:22;8.90;99.90
32698;DHT22;19087;51.062;3.754;2023-02-11T08:09:49;8.90;99.90
32698;DHT22;19087;51.062;3.754;2023-02-11T08:12:15;9.20;99.90
32698;DHT22;19087;51.062;3.754;2023-02-11T08:14:41;8.90;99.90
32698;DHT22;19087;51.062;3.754;2023-02-11T08:17:08;9.00;99.90
32698;DHT22;19087;51.062;3.754;2023-02-11T08:19:38;9.20;99.90
32698;DHT22;19087;51.062;3.754;2023-02-11T08:22:04;9.20;99.90
32698;DHT22;19087;51.062;3.754;2023-02-11T08:24:30;9.20;99.90
32698;DHT22;19087;51.062;3.754;2023-02-11T08:26:57;9.20;99.90
32698;DHT22;19087;51.062;3.754;2023-02-11T08:29:23;9.30;99.90
32698;DHT22;19087;51.062;3.754;2023-02-11T08:31:48;9.40;99.90
32698;DHT22;19087;51.062;3.754;2023-02-11T08:34:16;9.30;99.90
32698;DHT22;19087;51.062;3.754;2023-02-11T08:36:46;9.10;99.90
32698;DHT22;19087;51.062;3.754;2023-02-11T08:39:15;9.40;99.90
32698;DHT22;19087;51.062;3.754;2023-02-11T08:41:49;9.40;99.90
32698;DHT22;19087;51.062;3.754;2023-02-11T08:44:18;9.50;99.90
32698;DHT22;19087;51.062;3.754;2023-02-11T08:46:48;9.50;99.90
32698;DHT22;19087;51.062;3.754;2023-02-11T08:49:15;9.60;99.90
32698;DHT22;19087;51.062;3.754;2023-02-11T08:51:41;9.70;99.90
32698;DHT22;19087;51.062;3.754;2023-02-11T08:54:07;9.60;99.90
32698;DHT22;19087;51.062;3.754;2023-02-11T08:56:34;9.70;99.90
32698;DHT22;19087;51.062;3.754;2023-02-11T08:59:00;9.70;99.90
32698;DHT22;19087;51.062;3.754;2023-02-11T09:01:30;9.80;99.90
32698;DHT22;19087;51.062;3.754;2023-02-11T09:03:57;9.90;99.90
32698;DHT22;19087;51.062;3.754;2023-02-11T09:06:24;9.80;99.90
32698;DHT22;19087;51.062;3.754;2023-02-11T09:08:53;9.70;99.90
32698;DHT22;19087;51.062;3.754;2023-02-11T09:11:23;9.80;99.90
32698;DHT22;19087;51.062;3.754;2023-02-11T09:13:49;10.00;99.90
32698;DHT22;19087;51.062;3.754;2023-02-11T09:16:18;10.10;99.90
32698;DHT22;19087;51.062;3.754;2023-02-11T09:18:44;10.20;99.90
32698;DHT22;19087;51.062;3.754;2023-02-11T09:21:11;10.20;99.90
32698;DHT22;19087;51.062;3.754;2023-02-11T09:23:37;10.20;99.90
32698;DHT22;19087;51.062;3.754;2023-02-11T09:26:06;10.20;99.90
32698;DHT22;19087;51.062;3.754;2023-02-11T09:28:32;10.40;99.90
32698;DHT22;19087;51.062;3.754;2023-02-11T09:30:58;10.50;99.90
32698;DHT22;19087;51.062;3.754;2023-02-11T09:33:23;10.60;99.90
32698;DHT22;19087;51.062;3.754;2023-02-11T09:35:49;10.70;99.90
32698;DHT22;19087;51.062;3.754;2023-02-11T09:38:14;10.80;99.90
32698;DHT22;19087;51.062;3.754;2023-02-11T09:40:44;10.80;99.90
32698;DHT22;19087;51.062;3.754;2023-02-11T09:43:32;10.90;99.90
32698;DHT22;19087;51.062;3.754;2023-02-11T09:46:01;10.80;99.90
32698;DHT22;19087;51.062;3.754;2023-02-11T09:48:35;10.90;99.90
32698;DHT22;19087;51.062;3.754;2023-02-11T09:51:03;10.80;99.90
32698;DHT22;19087;51.062;3.754;2023-02-11T09:53:34;10.80;99.90
32698;DHT22;19087;51.062;3.754;2023-02-11T09:56:10;10.80;99.90
32698;DHT22;19087;51.062;3.754;2023-02-11T09:58:41;10.90;99.90
32698;DHT22;19087;51.062;3.754;2023-02-11T10:01:34;11.00;99.90
32698;DHT22;19087;51.062;3.754;2023-02-11T10:04:06;11.00;99.90
32698;DHT22;19087;51.062;3.754;2023-02-11T10:06:43;11.00;99.90
32698;DHT22;19087;51.062;3.754;2023-02-11T10:19:58;11.10;99.90
32698;DHT22;19087;51.062;3.754;2023-02-11T10:22:46;11.20;99.90
32698;DHT22;19087;51.062;3.754;2023-02-11T10:28:00;11.30;99.90
32698;DHT22;19087;51.062;3.754;2023-02-11T10:30:37;11.40;99.90
32698;DHT22;19087;51.062;3.754;2023-02-11T10:33:22;11.30;99.90
32698;DHT22;19087;51.062;3.754;2023-02-11T10:35:49;11.10;99.90
32698;DHT22;19087;51.062;3.754;2023-02-11T10:38:15;10.90;99.90
32698;DHT22;19087;51.062;3.754;2023-02-11T10:40:41;10.80;99.90
32698;DHT22;19087;51.062;3.754;2023-02-11T10:43:12;11.00;99.90
32698;DHT22;19087;51.062;3.754;2023-02-11T10:45:42;11.20;99.90
32698;DHT22;19087;51.062;3.754;2023-02-11T10:53:33;11.20;99.90
32698;DHT22;19087;51.062;3.754;2023-02-11T10:56:00;11.20;99.90
32698;DHT22;19087;51.062;3.754;2023-02-11T11:01:05;11.30;99.90
32698;DHT22;19087;51.062;3.754;2023-02-11T11:03:38;11.40;99.90
32698;DHT22;19087;51.062;3.754;2023-02-11T11:06:08;11.60;99.90
32698;DHT22;19087;51.062;3.754;2023-02-11T11:08:41;11.70;99.90
32698;DHT22;19087;51.062;3.754;2023-02-11T11:11:09;11.80;99.90
32698;DHT22;19087;51.062;3.754;2023-02-11T11:16:14;11.80;99.90
32698;DHT22;19087;51.062;3.754;2023-02-11T11:18:46;11.90;99.90
32698;DHT22;19087;51.062;3.754;2023-02-11T11:21:13;11.90;99.90
32698;DHT22;19087;51.062;3.754;2023-02-11T11:23:54;12.00;99.90
32698;DHT22;19087;51.062;3.754;2023-02-11T11:26:21;12.00;99.90
32698;DHT22;19087;51.062;3.754;2023-02-11T11:29:06;12.10;99.90
32698;DHT22;19087;51.062;3.754;2023-02-11T11:31:36;12.10;99.90
32698;DHT22;19087;51.062;3.754;2023-02-11T11:34:17;12.20;99.90
32698;DHT22;19087;51.062;3.754;2023-02-11T11:36:45;12.40;99.90
32698;DHT22;19087;51.062;3.754;2023-02-11T11:39:31;12.40;99.90
32698;DHT22;19087;51.062;3.754;2023-02-11T11:42:00;12.20;99.90
32698;DHT22;19087;51.062;3.754;2023-02-11T11:44:37;12.30;99.90
32698;DHT22;19087;51.062;3.754;2023-02-11T11:58:20;12.50;99.90
32698;DHT22;19087;51.062;3.754;2023-02-11T12:03:42;12.60;99.90
32698;DHT22;19087;51.062;3.754;2023-02-11T12:06:28;12.40;99.90
32698;DHT22;19087;51.062;3.754;2023-02-11T12:12:05;12.40;99.90
32698;DHT22;19087;51.062;3.754;2023-02-11T12:26:16;12.50;99.90
32698;DHT22;19087;51.062;3.754;2023-02-11T12:32:16;12.40;99.90
32698;DHT22;19087;51.062;3.754;2023-02-11T12:43:23;12.10;99.90
32698;DHT22;19087;51.062;3.754;2023-02-11T12:51:49;12.40;99.90
32698;DHT22;19087;51.062;3.754;2023-02-11T12:54:18;12.40;99.90
32698;DHT22;19087;51.062;3.754;2023-02-11T13:02:00;12.20;99.90
32698;DHT22;19087;51.062;3.754;2023-02-11T13:04:36;12.30;99.90
32698;DHT22;19087;51.062;3.754;2023-02-11T13:07:08;12.40;99.90
32698;DHT22;19087;51.062;3.754;2023-02-11T13:09:49;12.50;99.90
32698;DHT22;19087;51.062;3.754;2023-02-11T13:12:16;12.40;99.90
32698;DHT22;19087;51.062;3.754;2023-02-11T13:15:05;12.40;99.90
32698;DHT22;19087;51.062;3.754;2023-02-11T13:17:39;12.50;99.90
32698;DHT22;19087;51.062;3.754;2023-02-11T13:20:29;12.40;99.90
32698;DHT22;19087;51.062;3.754;2023-02-11T13:26:09;12.60;99.90
32698;DHT22;19087;51.062;3.754;2023-02-11T13:28:47;12.50;99.90
32698;DHT22;19087;51.062;3.754;2023-02-11T13:31:15;12.50;99.90
32698;DHT22;19087;51.062;3.754;2023-02-11T13:33:45;12.60;99.90
32698;DHT22;19087;51.062;3.754;2023-02-11T13:36:17;12.70;99.90
32698;DHT22;19087;51.062;3.754;2023-02-11T13:38:58;12.70;99.90
32698;DHT22;19087;51.062;3.754;2023-02-11T13:41:29;12.80;99.90
32698;DHT22;19087;51.062;3.754;2023-02-11T13:49:29;12.50;99.90
32698;DHT22;19087;51.062;3.754;2023-02-11T13:51:56;12.50;99.90
32698;DHT22;19087;51.062;3.754;2023-02-11T13:54:32;12.60;99.90
32698;DHT22;19087;51.062;3.754;2023-02-11T14:10:52;12.80;99.90
32698;DHT22;19087;51.062;3.754;2023-02-11T14:16:12;12.60;99.90
32698;DHT22;19087;51.062;3.754;2023-02-11T14:18:57;12.70;99.90
32698;DHT22;19087;51.062;3.754;2023-02-11T14:38:17;12.50;99.90
32698;DHT22;19087;51.062;3.754;2023-02-11T14:43:37;12.60;99.90
32698;DHT22;19087;51.062;3.754;2023-02-11T14:46:07;12.60;99.90
32698;DHT22;19087;51.062;3.754;2023-02-11T14:48:38;12.60;99.90
32698;DHT22;19087;51.062;3.754;2023-02-11T14:51:11;12.60;99.90
32698;DHT22;19087;51.062;3.754;2023-02-11T14:53:43;12.60;99.90
32698;DHT22;19087;51.062;3.754;2023-02-11T14:56:25;12.50;99.90
32698;DHT22;19087;51.062;3.754;2023-02-11T14:58:52;12.20;99.90
32698;DHT22;19087;51.062;3.754;2023-02-11T15:01:31;12.40;99.90
32698;DHT22;19087;51.062;3.754;2023-02-11T15:03:58;12.60;99.90
32698;DHT22;19087;51.062;3.754;2023-02-11T15:06:33;12.50;99.90
32698;DHT22;19087;51.062;3.754;2023-02-11T15:09:11;12.50;99.90
32698;DHT22;19087;51.062;3.754;2023-02-11T15:11:40;12.40;99.90
32698;DHT22;19087;51.062;3.754;2023-02-11T15:14:10;12.30;99.90
32698;DHT22;19087;51.062;3.754;2023-02-11T15:16:44;12.40;99.90
32698;DHT22;19087;51.062;3.754;2023-02-11T15:19:32;12.60;99.90
32698;DHT22;19087;51.062;3.754;2023-02-11T15:22:03;12.60;99.90
32698;DHT22;19087;51.062;3.754;2023-02-11T15:24:31;12.40;99.90
32698;DHT22;19087;51.062;3.754;2023-02-11T15:27:17;12.30;99.90
32698;DHT22;19087;51.062;3.754;2023-02-11T15:29:48;12.20;99.90
32698;DHT22;19087;51.062;3.754;2023-02-11T15:32:23;12.30;99.90
32698;DHT22;19087;51.062;3.754;2023-02-11T15:34:53;12.40;99.90
32698;DHT22;19087;51.062;3.754;2023-02-11T15:37:24;12.50;99.90
32698;DHT22;19087;51.062;3.754;2023-02-11T15:39:51;12.60;99.90
32698;DHT22;19087;51.062;3.754;2023-02-11T15:42:26;12.60;99.90
32698;DHT22;19087;51.062;3.754;2023-02-11T15:47:47;12.40;99.90
32698;DHT22;19087;51.062;3.754;2023-02-11T15:50:28;12.40;99.90
32698;DHT22;19087;51.062;3.754;2023-02-11T15:52:59;12.20;99.90
32698;DHT22;19087;51.062;3.754;2023-02-11T15:55:25;12.30;99.90
32698;DHT22;19087;51.062;3.754;2023-02-11T15:57:58;12.30;99.90
32698;DHT22;19087;51.062;3.754;2023-02-11T16:00:44;12.40;99.90
32698;DHT22;19087;51.062;3.754;2023-02-11T16:03:23;12.40;99.90
32698;DHT22;19087;51.062;3.754;2023-02-11T16:05:49;12.50;99.90
32698;DHT22;19087;51.062;3.754;2023-02-11T16:08:26;12.30;99.90
32698;DHT22;19087;51.062;3.754;2023-02-11T16:10:56;12.20;99.90
32698;DHT22;19087;51.062;3.754;2023-02-11T16:13:24;12.20;99.90
32698;DHT22;19087;51.062;3.754;2023-02-11T16:16:04;12.30;99.90
32698;DHT22;19087;51.062;3.754;2023-02-11T16:18:54;12.30;99.90
32698;DHT22;19087;51.062;3.754;2023-02-11T16:21:30;12.30;99.90
32698;DHT22;19087;51.062;3.754;2023-02-11T16:23:59;12.20;99.90
32698;DHT22;19087;51.062;3.754;2023-02-11T16:29:15;12.20;99.90
32698;DHT22;19087;51.062;3.754;2023-02-11T16:31:44;12.10;99.90
32698;DHT22;19087;51.062;3.754;2023-02-11T16:34:16;12.00;99.90
32698;DHT22;19087;51.062;3.754;2023-02-11T16:36:43;11.90;99.90
32698;DHT22;19087;51.062;3.754;2023-02-11T16:39:09;11.90;99.90
32698;DHT22;19087;51.062;3.754;2023-02-11T16:41:35;11.80;99.90
32698;DHT22;19087;51.062;3.754;2023-02-11T16:44:01;11.70;99.90
32698;DHT22;19087;51.062;3.754;2023-02-11T16:46:26;11.90;99.90
32698;DHT22;19087;51.062;3.754;2023-02-11T16:48:55;12.00;99.90
32698;DHT22;19087;51.062;3.754;2023-02-11T16:51:22;12.10;99.90
32698;DHT22;19087;51.062;3.754;2023-02-11T16:53:47;12.00;99.90
32698;DHT22;19087;51.062;3.754;2023-02-11T16:56:15;11.90;99.90
32698;DHT22;19087;51.062;3.754;2023-02-11T16:58:41;12.00;99.90
32698;DHT22;19087;51.062;3.754;2023-02-11T17:01:08;12.10;99.90
32698;DHT22;19087;51.062;3.754;2023-02-11T17:03:37;12.10;99.90
32698;DHT22;19087;51.062;3.754;2023-02-11T17:06:09;12.00;99.90
32698;DHT22;19087;51.062;3.754;2023-02-11T17:08:37;12.00;99.90
32698;DHT22;19087;51.062;3.754;2023-02-11T17:11:02;12.00;99.90
32698;DHT22;19087;51.062;3.754;2023-02-11T17:13:28;12.00;99.90
32698;DHT22;19087;51.062;3.754;2023-02-11T17:15:54;12.10;99.90
32698;DHT22;19087;51.062;3.754;2023-02-11T17:18:19;11.90;99.90
32698;DHT22;19087;51.062;3.754;2023-02-11T17:20:46;11.90;99.90
32698;DHT22;19087;51.062;3.754;2023-02-11T17:23:14;12.00;99.90
32698;DHT22;19087;51.062;3.754;2023-02-11T17:25:40;12.00;99.90
32698;DHT22;19087;51.062;3.754;2023-02-11T17:28:08;12.20;99.90
32698;DHT22;19087;51.062;3.754;2023-02-11T17:30:39;12.10;99.90
32698;DHT22;19087;51.062;3.754;2023-02-11T17:33:06;12.00;99.90
32698;DHT22;19087;51.062;3.754;2023-02-11T17:35:32;11.80;99.90
32698;DHT22;19087;51.062;3.754;2023-02-11T17:37:58;11.90;99.90
32698;DHT22;19087;51.062;3.754;2023-02-11T17:40:26;11.90;99.90
32698;DHT22;19087;51.062;3.754;2023-02-11T17:42:52;12.00;99.90
32698;DHT22;19087;51.062;3.754;2023-02-11T17:45:18;12.00;99.90
32698;DHT22;19087;51.062;3.754;2023-02-11T17:47:43;11.90;99.90
32698;DHT22;19087;51.062;3.754;2023-02-11T17:50:09;11.80;99.90
32698;DHT22;19087;51.062;3.754;2023-02-11T17:52:35;11.80;99.90
32698;DHT22;19087;51.062;3.754;2023-02-11T17:55:04;11.80;99.90
32698;DHT22;19087;51.062;3.754;2023-02-11T17:57:30;11.80;99.90
32698;DHT22;19087;51.062;3.754;2023-02-11T17:59:56;11.90;99.90
32698;DHT22;19087;51.062;3.754;2023-02-11T18:02:25;11.90;99.90
32698;DHT22;19087;51.062;3.754;2023-02-11T18:04:54;11.70;99.90
32698;DHT22;19087;51.062;3.754;2023-02-11T18:07:32;11.70;99.90
32698;DHT22;19087;51.062;3.754;2023-02-11T18:09:58;11.70;99.90
32698;DHT22;19087;51.062;3.754;2023-02-11T18:12:25;11.80;99.90
32698;DHT22;19087;51.062;3.754;2023-02-11T18:14:52;11.70;99.90
32698;DHT22;19087;51.062;3.754;2023-02-11T18:17:20;11.70;99.90
32698;DHT22;19087;51.062;3.754;2023-02-11T18:19:46;11.80;99.90
32698;DHT22;19087;51.062;3.754;2023-02-11T18:22:11;11.70;99.90
32698;DHT22;19087;51.062;3.754;2023-02-11T18:24:39;11.80;99.90
32698;DHT22;19087;51.062;3.754;2023-02-11T18:27:04;11.90;99.90
32698;DHT22;19087;51.062;3.754;2023-02-11T18:29:30;11.80;99.90
32698;DHT22;19087;51.062;3.754;2023-02-11T18:31:56;11.80;99.90
32698;DHT22;19087;51.062;3.754;2023-02-11T18:34:22;11.70;99.90
32698;DHT22;19087;51.062;3.754;2023-02-11T18:36:48;11.60;99.90